Check Row, Illinois
Current Conditions -  °F | °C
As of 7:55 AM on Monday 20 Oct 2014 (Local Time) from KMQB Reporting Station
Clear Clear  
Wind Chill: 44°   Ceiling: Unl
Heat Index: 47°   Visibility: 10mi
Dew Point: 46°   Wind: 7mph
Humidity: 94%   Direction: 280°W
Pressure: 29.95"   Gusts: NA
Location:  40.6414°N, 90.4243°W
Report Text: KMQB 201255Z AUTO 28006KT 10SM CLR 09/08 A2995 RMK AO2 T00860077
Loading
Personal Weather Stations






























Interactive Weather Map
Tropical Storm Tracking
New forecast layout! Learn more

10-Day Weather Forecast

Advertisements
Track Severe Weather on mobile